createdAt,value
2023-01-23T01:05:35.988Z,0.01
2023-01-23T01:08:16.977Z,0.02
2023-01-23T01:10:43.917Z,0.01
2023-01-23T01:46:22.831Z,0.02
2023-01-23T02:02:06.101Z,0.01
2023-01-23T02:16:38.712Z,0.02
2023-01-23T02:18:46.153Z,0.01
2023-01-23T02:26:51.739Z,0.02
2023-01-23T02:33:53.026Z,0.01
2023-01-23T02:53:02.107Z,0.02
2023-01-23T03:18:30.178Z,0.03
2023-01-23T03:21:00.578Z,0.02
2023-01-23T03:45:39.660Z,0.03
2023-01-23T03:50:28.717Z,0.02
2023-01-23T03:53:03.569Z,0.03
2023-01-23T03:55:23.802Z,0.02
2023-01-23T04:00:25.449Z,0.03
2023-01-23T04:12:31.743Z,0.02
2023-01-23T04:19:28.335Z,0.03
2023-01-23T05:06:28.790Z,0.04
2023-01-23T05:11:25.879Z,0.03
2023-01-23T05:16:29.293Z,0.04
2023-01-23T05:41:13.162Z,0.05
2023-01-23T05:43:38.984Z,0.04
2023-01-23T05:45:50.887Z,0.05
2023-01-23T06:07:33.436Z,0.07
2023-01-23T06:10:32.102Z,0.05
2023-01-23T06:20:05.409Z,0.06
2023-01-23T06:22:55.890Z,0.07
2023-01-23T06:25:32.467Z,0.09
2023-01-23T06:27:55.128Z,0.11
2023-01-23T06:30:02.900Z,0.13
2023-01-23T06:32:59.709Z,0.15
2023-01-23T06:35:42.390Z,0.2
2023-01-23T06:38:10.840Z,0.26
2023-01-23T06:40:25.156Z,0.37
2023-01-23T06:42:25.606Z,0.51
2023-01-23T06:45:14.410Z,0.74
2023-01-23T06:47:49.615Z,1.25
2023-01-23T06:50:09.717Z,1.71
2023-01-23T06:52:16.374Z,2.49
2023-01-23T06:55:11.922Z,4.17
2023-01-23T06:57:52.226Z,6.22
2023-01-23T07:00:19.442Z,8.42
2023-01-23T07:02:31.859Z,11.53
2023-01-23T07:04:30.670Z,15.01
2023-01-23T07:07:17.769Z,19.5
2023-01-23T07:09:31.744Z,25.63
2023-01-23T07:11:31.526Z,32.45
2023-01-23T07:14:19.646Z,42.08
2023-01-23T07:16:53.872Z,52.8
2023-01-23T07:19:13.898Z,64.58
2023-01-23T07:21:19.313Z,75.32
2023-01-23T07:24:13.679Z,89.28
2023-01-23T07:26:53.973Z,109.12
2023-01-23T07:29:20.012Z,129.56
2023-01-23T07:31:32.211Z,143.8
2023-01-23T07:33:30.195Z,154.56
2023-01-23T07:36:16.491Z,176.5
2023-01-23T07:38:48.693Z,189.6
2023-01-23T07:43:11.245Z,210.2
2023-01-23T07:46:03.731Z,234
2023-01-23T07:48:42.322Z,243
2023-01-23T07:51:06.699Z,263.6
2023-01-23T07:53:17.157Z,282.8
2023-01-23T07:56:15.767Z,291.6
2023-01-23T07:59:00.517Z,318
2023-01-23T08:01:31.028Z,340.9
2023-01-23T08:03:47.485Z,329.7
2023-01-23T08:05:49.963Z,345.4
2023-01-23T08:08:40.650Z,340.9
2023-01-23T08:11:17.265Z,365.2
2023-01-23T08:13:39.533Z,373.1
2023-01-23T08:15:48.063Z,373.9
2023-01-23T08:18:44.878Z,401.6
2023-01-23T08:21:27.833Z,411.6
2023-01-23T08:23:56.568Z,410.2
2023-01-23T08:26:11.254Z,441.1
2023-01-23T08:28:11.925Z,464.9
2023-01-23T08:31:00.938Z,464.3
2023-01-23T08:33:35.709Z,510.2
2023-01-23T08:35:56.431Z,536
2023-01-23T08:38:03.216Z,449.2
2023-01-23T08:40:58.331Z,430
2023-01-23T08:43:39.196Z,398
2023-01-23T08:46:06.284Z,440.4
2023-01-23T08:48:19.128Z,442.2
2023-01-23T08:50:18.213Z,461.1
2023-01-23T08:53:05.064Z,526
2023-01-23T08:55:38.216Z,625.4
2023-01-23T09:00:02.148Z,686
2023-01-23T09:02:55.535Z,550.2
2023-01-23T09:05:34.327Z,540.6
2023-01-23T09:07:59.408Z,512.8
2023-01-23T09:10:10.569Z,525.6
2023-01-23T09:12:07.588Z,539
2023-01-23T09:14:52.990Z,543.5
2023-01-23T09:17:24.355Z,659.2
2023-01-23T09:19:41.699Z,732.8
2023-01-23T09:21:44.874Z,682.5
2023-01-23T09:24:36.568Z,688.9
2023-01-23T09:27:14.122Z,764.1
2023-01-23T09:29:37.458Z,783.6
2023-01-23T09:31:47.179Z,768.6
2023-01-23T09:34:44.642Z,837.4
2023-01-23T09:37:28.211Z,896.3
2023-01-23T09:39:57.648Z,922.8
2023-01-23T09:42:13.236Z,822.7
2023-01-23T09:44:14.611Z,777.6
2023-01-23T09:47:04.348Z,868.1
2023-01-23T09:49:40.203Z,913.2
2023-01-23T09:52:01.867Z,851.8
2023-01-23T09:54:09.365Z,876.8
2023-01-23T09:57:05.039Z,913.6
2023-01-23T09:59:58.576Z,894.7
2023-01-23T10:02:14.565Z,990.4
2023-01-23T10:04:28.105Z,1038.7
2023-01-23T10:06:27.777Z,978.8
2023-01-23T10:09:15.668Z,1016.3
2023-01-23T10:11:49.415Z,1039.6
2023-01-23T10:14:09.369Z,1037.7
2023-01-23T10:16:15.196Z,1017.2
2023-01-23T10:19:09.227Z,956.1
2023-01-23T10:21:49.481Z,910.7
2023-01-23T10:24:15.640Z,911.6
2023-01-23T10:26:27.497Z,960.9
2023-01-23T10:28:25.515Z,936.6
2023-01-23T10:31:11.843Z,1006
2023-01-23T10:33:43.829Z,991.6
2023-01-23T10:36:01.856Z,987.2
2023-01-23T10:38:05.998Z,1131.8
2023-01-23T10:40:58.476Z,1041.2
2023-01-23T10:43:36.617Z,1071.3
2023-01-23T10:46:00.935Z,1060.4
2023-01-23T10:48:16.010Z,1044.1
2023-01-23T10:51:09.115Z,1078.4
2023-01-23T10:53:53.635Z,952.3
2023-01-23T10:56:24.009Z,987.2
2023-01-23T10:58:40.100Z,1032.6
2023-01-23T11:00:42.430Z,1044.4
2023-01-23T11:03:33.111Z,1086.4
2023-01-23T11:06:09.613Z,1153.9
2023-01-23T11:08:32.009Z,1117.7
2023-01-23T11:10:40.413Z,1107.8
2023-01-23T11:13:37.066Z,1176.9
2023-01-23T11:16:19.685Z,1180.4
2023-01-23T11:18:48.344Z,1243.5
2023-01-23T11:21:03.147Z,1265.6
2023-01-23T11:23:03.363Z,1253.1
2023-01-23T11:25:52.357Z,1133.7
2023-01-23T11:28:27.405Z,1386.2
2023-01-23T11:30:48.047Z,1388.1
2023-01-23T11:32:54.709Z,1230.7
2023-01-23T11:35:49.807Z,1326.7
2023-01-23T11:38:31.417Z,1129.2
2023-01-23T11:40:57.108Z,1712
2023-01-23T11:43:09.979Z,1688
2023-01-23T11:45:08.710Z,1784
2023-01-23T11:47:55.729Z,1792
2023-01-23T11:50:28.817Z,1939
2023-01-23T11:52:47.837Z,1774
2023-01-23T11:54:52.679Z,1761
2023-01-23T11:57:46.092Z,1775
2023-01-23T12:00:25.537Z,1790
2023-01-23T12:02:50.717Z,1751
2023-01-23T12:05:02.009Z,1572.4
2023-01-23T12:06:59.068Z,1050.5
2023-01-23T12:09:44.564Z,1370.2
2023-01-23T12:12:15.828Z,1714
2023-01-23T12:14:33.189Z,1220.8
2023-01-23T12:16:36.422Z,1735
2023-01-23T12:19:27.990Z,1402.8
2023-01-23T12:22:05.531Z,1107.2
2023-01-23T12:24:28.991Z,1065.9
2023-01-23T12:26:38.367Z,1466.8
2023-01-23T12:29:36.177Z,1617.2
2023-01-23T12:32:19.697Z,1740
2023-01-23T12:34:49.168Z,1187.5
2023-01-23T12:37:11.977Z,1074.2
2023-01-23T12:39:06.425Z,1388.8
2023-01-23T12:41:56.384Z,1121.6
2023-01-23T12:44:32.150Z,1851
2023-01-23T12:46:54.086Z,1958
2023-01-23T12:49:01.726Z,2134
2023-01-23T12:51:58.035Z,1786
2023-01-23T12:54:39.658Z,1799
2023-01-23T12:57:07.768Z,1691
2023-01-23T12:59:21.267Z,1598
2023-01-23T13:01:21.135Z,1564.8
2023-01-23T13:04:09.163Z,1578.2
2023-01-23T13:06:43.018Z,1942
2023-01-23T13:09:12.898Z,1841
2023-01-23T13:11:08.746Z,1503.3
2023-01-23T13:14:02.925Z,1454
2023-01-23T13:16:43.090Z,1415.6
2023-01-23T13:19:09.150Z,1388.8
2023-01-23T13:21:21.210Z,1392
2023-01-23T13:23:18.541Z,1367.6
2023-01-23T13:26:04.934Z,1351.6
2023-01-23T13:28:44.369Z,1245.4
2023-01-23T13:30:54.980Z,1334.4
2023-01-23T13:32:59.166Z,733.7
2023-01-23T13:35:51.492Z,1325.4
2023-01-23T13:38:29.921Z,1296
2023-01-23T13:40:54.092Z,1216
2023-01-23T13:43:04.310Z,1270.4
2023-01-23T13:46:02.856Z,1226.2
2023-01-23T14:20:46.171Z,1064.6
2023-01-23T14:23:21.208Z,995.2
2023-01-23T14:25:41.942Z,686.7
2023-01-23T14:27:53.538Z,569.1
2023-01-23T14:30:43.665Z,659.8
2023-01-23T14:33:24.779Z,608.3
2023-01-23T14:35:51.684Z,636.6
2023-01-23T14:38:04.420Z,689.2
2023-01-23T14:40:11.552Z,750.7
2023-01-23T14:42:50.518Z,779.8
2023-01-23T14:45:23.450Z,745.6
2023-01-23T14:47:42.668Z,511.5
2023-01-23T14:49:47.662Z,751.3
2023-01-23T14:52:41.034Z,685.1
2023-01-23T14:55:29.202Z,458.2
2023-01-23T14:57:45.385Z,450.4
2023-01-23T14:59:56.403Z,430
2023-01-23T15:01:53.679Z,436.8
2023-01-23T15:04:38.845Z,515.2
2023-01-23T15:07:09.659Z,401.4
2023-01-23T15:09:27.366Z,370
2023-01-23T15:11:29.875Z,373.1
2023-01-23T15:14:21.391Z,444.4
2023-01-23T15:16:58.619Z,437.2
2023-01-23T15:19:21.932Z,416.9
2023-01-23T15:21:31.166Z,404.9
2023-01-23T15:24:28.844Z,359
2023-01-23T15:27:12.497Z,343
2023-01-23T15:29:41.985Z,317.2
2023-01-23T15:31:57.369Z,290.4
2023-01-23T15:33:58.668Z,249.2
2023-01-23T15:36:48.404Z,226.9
2023-01-23T15:39:23.989Z,214.7
2023-01-23T15:41:45.488Z,191
2023-01-23T15:43:52.946Z,173.4
2023-01-23T15:46:48.891Z,149.64
2023-01-23T15:49:30.467Z,125.96
2023-01-23T15:51:58.330Z,107.6
2023-01-23T15:54:11.971Z,95.4
2023-01-23T15:56:11.429Z,81.92
2023-01-23T15:58:58.922Z,69.22
2023-01-23T16:01:32.727Z,55.64
2023-01-23T16:03:52.274Z,47.56
2023-01-23T16:05:58.036Z,38.3
2023-01-23T16:09:00.731Z,28.95
2023-01-23T16:11:31.722Z,22.35
2023-01-23T16:13:57.492Z,16.94
2023-01-23T16:16:09.325Z,13.32
2023-01-23T16:18:06.997Z,9.71
2023-01-23T16:20:52.934Z,6.96
2023-01-23T16:23:25.014Z,4.9
2023-01-23T16:25:44.341Z,3.42
2023-01-23T16:27:46.547Z,2.51
2023-01-23T16:30:38.771Z,1.57
2023-01-23T16:33:16.892Z,0.97
2023-01-23T16:35:40.831Z,0.64
2023-01-23T16:37:50.958Z,0.48
2023-01-23T16:40:49.412Z,0.31
2023-01-23T16:43:33.779Z,0.2
2023-01-23T16:46:04.109Z,0.16
2023-01-23T16:48:27.418Z,0.13
2023-01-23T16:50:22.028Z,0.11
2023-01-23T16:53:12.310Z,0.1
2023-01-23T17:00:30.363Z,0.09
2023-01-23T17:05:58.990Z,0.07
2023-01-23T17:08:27.498Z,0.08
2023-01-23T17:15:30.990Z,0.07
2023-01-23T17:18:05.606Z,0.05
2023-01-23T17:20:26.261Z,0.06
2023-01-23T17:22:32.797Z,0.04
2023-01-23T17:25:27.528Z,0.05
2023-01-23T17:28:12.986Z,0.06
2023-01-23T17:30:35.079Z,0.05
2023-01-23T17:34:50.056Z,0.04
2023-01-23T17:37:33.386Z,0.05
2023-01-23T17:39:47.180Z,0.04
2023-01-23T17:41:46.499Z,0.05
2023-01-23T17:44:34.369Z,0.06
2023-01-23T17:47:08.393Z,0.05
2023-01-23T17:49:28.302Z,0.04
2023-01-23T17:51:34.011Z,0.05
2023-01-23T17:57:08.382Z,0.04
2023-01-23T17:59:34.451Z,0.05
2023-01-23T18:01:46.564Z,0.02
2023-01-23T18:03:46.203Z,0.03
2023-01-23T18:18:55.890Z,0.04
2023-01-23T18:21:20.228Z,0.05
2023-01-23T18:23:30.446Z,0.08
2023-01-23T18:26:29.159Z,0.05
2023-01-23T18:29:13.654Z,0.03
2023-01-23T18:36:02.417Z,0.02
2023-01-23T18:41:29.341Z,0.04
2023-01-23T18:46:00.501Z,0.03
2023-01-23T18:48:57.221Z,0.02
2023-01-23T18:54:08.855Z,0.03
2023-01-23T18:58:24.176Z,0.02
2023-01-23T19:06:08.338Z,0.03
2023-01-23T19:11:09.972Z,0.02
2023-01-23T19:25:49.068Z,0.03
2023-01-23T19:30:12.967Z,0.02
2023-01-23T19:38:10.329Z,0.03
2023-01-23T19:45:03.583Z,0.02
2023-01-23T20:22:11.017Z,0.03
2023-01-23T20:27:14.370Z,0.02
2023-01-23T20:32:23.813Z,0.03
2023-01-23T20:36:37.023Z,0.02
2023-01-23T20:41:58.660Z,0.03
2023-01-23T20:51:58.439Z,0.04
2023-01-23T20:56:36.197Z,0.03
2023-01-23T21:01:20.428Z,0.02
2023-01-23T21:11:06.503Z,0.03
2023-01-23T21:21:17.546Z,0.04
2023-01-23T21:24:02.189Z,0.03
2023-01-23T21:51:11.615Z,0.02
2023-01-23T23:41:11.616Z,0.01
2023-01-23T23:46:45.287Z,0.02
2023-01-23T23:51:23.426Z,0.01
2023-01-23T23:56:07.369Z,0.02
2023-01-23T23:58:39.539Z,0.01
